sensor_id;sensor_type;location;lat;lon;timestamp;P1;durP1;ratioP1;P2;durP2;ratioP2
58685;SDS011;44465;53.206;-6.106;2023-01-13T00:01:15;5.40;;;1.58;;
58685;SDS011;44465;53.206;-6.106;2023-01-13T00:03:47;7.38;;;1.90;;
58685;SDS011;44465;53.206;-6.106;2023-01-13T00:15:56;4.55;;;1.40;;
58685;SDS011;44465;53.206;-6.106;2023-01-13T00:18:33;6.27;;;1.23;;
58685;SDS011;44465;53.206;-6.106;2023-01-13T00:21:01;11.82;;;1.80;;
58685;SDS011;44465;53.206;-6.106;2023-01-13T00:27:21;4.80;;;1.30;;
58685;SDS011;44465;53.206;-6.106;2023-01-13T00:29:50;2.58;;;1.05;;
58685;SDS011;44465;53.206;-6.106;2023-01-13T00:32:16;4.28;;;1.50;;
58685;SDS011;44465;53.206;-6.106;2023-01-13T00:37:46;5.95;;;1.13;;
58685;SDS011;44465;53.206;-6.106;2023-01-13T00:40:12;5.43;;;1.48;;
58685;SDS011;44465;53.206;-6.106;2023-01-13T00:42:53;2.15;;;0.80;;
58685;SDS011;44465;53.206;-6.106;2023-01-13T00:45:43;3.35;;;1.13;;
58685;SDS011;44465;53.206;-6.106;2023-01-13T00:48:11;3.70;;;1.00;;
58685;SDS011;44465;53.206;-6.106;2023-01-13T00:58:19;4.10;;;0.90;;
58685;SDS011;44465;53.206;-6.106;2023-01-13T01:00:45;2.97;;;0.98;;
58685;SDS011;44465;53.206;-6.106;2023-01-13T01:03:17;3.40;;;1.10;;
58685;SDS011;44465;53.206;-6.106;2023-01-13T01:05:47;1.08;;;0.77;;
58685;SDS011;44465;53.206;-6.106;2023-01-13T01:08:12;2.85;;;0.93;;
58685;SDS011;44465;53.206;-6.106;2023-01-13T01:10:39;1.35;;;0.85;;
58685;SDS011;44465;53.206;-6.106;2023-01-13T01:13:07;1.67;;;0.70;;
58685;SDS011;44465;53.206;-6.106;2023-01-13T01:15:38;2.65;;;0.85;;
58685;SDS011;44465;53.206;-6.106;2023-01-13T01:18:12;3.35;;;0.90;;
58685;SDS011;44465;53.206;-6.106;2023-01-13T01:20:40;9.10;;;1.30;;
58685;SDS011;44465;53.206;-6.106;2023-01-13T01:23:09;3.00;;;0.80;;
58685;SDS011;44465;53.206;-6.106;2023-01-13T01:29:05;2.38;;;0.68;;
58685;SDS011;44465;53.206;-6.106;2023-01-13T01:31:31;1.67;;;0.43;;
58685;SDS011;44465;53.206;-6.106;2023-01-13T01:33:58;4.07;;;0.50;;
58685;SDS011;44465;53.206;-6.106;2023-01-13T01:36:25;2.47;;;0.57;;
58685;SDS011;44465;53.206;-6.106;2023-01-13T01:41:55;1.52;;;0.60;;
58685;SDS011;44465;53.206;-6.106;2023-01-13T01:47:43;1.92;;;0.68;;
58685;SDS011;44465;53.206;-6.106;2023-01-13T01:50:14;1.25;;;0.60;;
58685;SDS011;44465;53.206;-6.106;2023-01-13T01:52:57;3.63;;;0.80;;
58685;SDS011;44465;53.206;-6.106;2023-01-13T01:56:28;1.02;;;0.50;;
58685;SDS011;44465;53.206;-6.106;2023-01-13T02:03:17;2.25;;;0.63;;
58685;SDS011;44465;53.206;-6.106;2023-01-13T02:13:07;1.50;;;0.50;;
58685;SDS011;44465;53.206;-6.106;2023-01-13T02:34:44;4.45;;;0.50;;
58685;SDS011;44465;53.206;-6.106;2023-01-13T03:52:44;1.10;;;0.40;;
58685;SDS011;44465;53.206;-6.106;2023-01-13T03:55:17;2.08;;;0.70;;
58685;SDS011;44465;53.206;-6.106;2023-01-13T04:36:40;1.33;;;0.40;;
58685;SDS011;44465;53.206;-6.106;2023-01-13T04:39:09;1.52;;;0.60;;
58685;SDS011;44465;53.206;-6.106;2023-01-13T04:53:13;1.33;;;0.40;;
58685;SDS011;44465;53.206;-6.106;2023-01-13T04:55:39;1.40;;;0.55;;
58685;SDS011;44465;53.206;-6.106;2023-01-13T06:46:01;1.08;;;0.63;;
58685;SDS011;44465;53.206;-6.106;2023-01-13T06:52:26;0.85;;;0.47;;
58685;SDS011;44465;53.206;-6.106;2023-01-13T07:10:16;1.05;;;0.52;;
58685;SDS011;44465;53.206;-6.106;2023-01-13T07:12:47;1.52;;;0.40;;
58685;SDS011;44465;53.206;-6.106;2023-01-13T07:34:32;1.17;;;0.65;;
58685;SDS011;44465;53.206;-6.106;2023-01-13T07:36:59;2.17;;;0.77;;
58685;SDS011;44465;53.206;-6.106;2023-01-13T07:39:25;5.53;;;1.08;;
58685;SDS011;44465;53.206;-6.106;2023-01-13T07:41:50;3.65;;;0.70;;
58685;SDS011;44465;53.206;-6.106;2023-01-13T08:34:14;1.80;;;0.80;;
58685;SDS011;44465;53.206;-6.106;2023-01-13T08:36:39;2.63;;;0.55;;
58685;SDS011;44465;53.206;-6.106;2023-01-13T08:39:09;2.45;;;0.70;;
58685;SDS011;44465;53.206;-6.106;2023-01-13T08:45:27;4.63;;;0.68;;
58685;SDS011;44465;53.206;-6.106;2023-01-13T08:47:59;11.30;;;1.50;;
58685;SDS011;44465;53.206;-6.106;2023-01-13T08:50:24;3.92;;;1.02;;
58685;SDS011;44465;53.206;-6.106;2023-01-13T08:52:50;5.75;;;1.30;;
58685;SDS011;44465;53.206;-6.106;2023-01-13T08:55:16;1.73;;;0.93;;
58685;SDS011;44465;53.206;-6.106;2023-01-13T08:57:42;5.60;;;0.88;;
58685;SDS011;44465;53.206;-6.106;2023-01-13T09:00:08;5.57;;;1.23;;
58685;SDS011;44465;53.206;-6.106;2023-01-13T09:02:35;7.07;;;1.10;;
58685;SDS011;44465;53.206;-6.106;2023-01-13T09:05:03;8.98;;;1.60;;
58685;SDS011;44465;53.206;-6.106;2023-01-13T09:07:32;4.05;;;1.23;;
58685;SDS011;44465;53.206;-6.106;2023-01-13T09:09:59;1.77;;;0.57;;
58685;SDS011;44465;53.206;-6.106;2023-01-13T09:12:25;1.50;;;0.57;;
58685;SDS011;44465;53.206;-6.106;2023-01-13T09:15:15;3.78;;;0.75;;
58685;SDS011;44465;53.206;-6.106;2023-01-13T09:17:44;2.67;;;0.88;;
58685;SDS011;44465;53.206;-6.106;2023-01-13T09:20:10;1.60;;;0.75;;
58685;SDS011;44465;53.206;-6.106;2023-01-13T09:22:36;3.10;;;0.80;;
58685;SDS011;44465;53.206;-6.106;2023-01-13T09:25:04;2.53;;;0.57;;
58685;SDS011;44465;53.206;-6.106;2023-01-13T09:27:31;1.15;;;0.68;;
58685;SDS011;44465;53.206;-6.106;2023-01-13T09:29:57;6.03;;;0.77;;
58685;SDS011;44465;53.206;-6.106;2023-01-13T09:32:23;2.20;;;0.68;;
58685;SDS011;44465;53.206;-6.106;2023-01-13T09:34:50;1.65;;;0.52;;
58685;SDS011;44465;53.206;-6.106;2023-01-13T09:37:25;2.63;;;0.60;;
58685;SDS011;44465;53.206;-6.106;2023-01-13T09:40:04;1.88;;;0.70;;
58685;SDS011;44465;53.206;-6.106;2023-01-13T09:42:57;1.55;;;0.60;;
58685;SDS011;44465;53.206;-6.106;2023-01-13T09:45:53;2.25;;;0.73;;
58685;SDS011;44465;53.206;-6.106;2023-01-13T09:48:34;2.47;;;0.60;;
58685;SDS011;44465;53.206;-6.106;2023-01-13T09:51:22;2.20;;;0.60;;
58685;SDS011;44465;53.206;-6.106;2023-01-13T09:53:58;2.90;;;1.25;;
58685;SDS011;44465;53.206;-6.106;2023-01-13T09:56:30;2.80;;;0.70;;
58685;SDS011;44465;53.206;-6.106;2023-01-13T09:58:57;2.25;;;0.57;;
58685;SDS011;44465;53.206;-6.106;2023-01-13T10:01:28;2.95;;;0.73;;
58685;SDS011;44465;53.206;-6.106;2023-01-13T10:04:03;9.48;;;1.00;;
58685;SDS011;44465;53.206;-6.106;2023-01-13T10:06:37;3.60;;;0.88;;
58685;SDS011;44465;53.206;-6.106;2023-01-13T10:09:10;7.65;;;1.45;;
58685;SDS011;44465;53.206;-6.106;2023-01-13T10:11:43;2.55;;;0.80;;
58685;SDS011;44465;53.206;-6.106;2023-01-13T10:17:43;1.35;;;0.80;;
58685;SDS011;44465;53.206;-6.106;2023-01-13T10:23:03;3.17;;;0.82;;
58685;SDS011;44465;53.206;-6.106;2023-01-13T10:28:54;3.20;;;0.47;;
58685;SDS011;44465;53.206;-6.106;2023-01-13T10:31:21;1.70;;;0.60;;
58685;SDS011;44465;53.206;-6.106;2023-01-13T10:33:48;3.20;;;0.73;;
58685;SDS011;44465;53.206;-6.106;2023-01-13T10:36:24;2.00;;;0.52;;
58685;SDS011;44465;53.206;-6.106;2023-01-13T10:38:53;2.65;;;0.68;;
58685;SDS011;44465;53.206;-6.106;2023-01-13T10:41:31;3.33;;;0.60;;
58685;SDS011;44465;53.206;-6.106;2023-01-13T10:46:32;2.35;;;0.73;;
58685;SDS011;44465;53.206;-6.106;2023-01-13T10:49:00;0.95;;;0.50;;
58685;SDS011;44465;53.206;-6.106;2023-01-13T10:51:46;3.00;;;1.00;;
58685;SDS011;44465;53.206;-6.106;2023-01-13T10:54:20;2.10;;;0.70;;
58685;SDS011;44465;53.206;-6.106;2023-01-13T10:56:48;1.60;;;0.60;;
58685;SDS011;44465;53.206;-6.106;2023-01-13T10:59:34;1.60;;;0.60;;
58685;SDS011;44465;53.206;-6.106;2023-01-13T11:02:01;1.33;;;0.60;;
58685;SDS011;44465;53.206;-6.106;2023-01-13T11:04:42;2.92;;;;;
58685;SDS011;44465;53.206;-6.106;2023-01-13T11:15:30;3.85;;;0.55;;
58685;SDS011;44465;53.206;-6.106;2023-01-13T11:18:07;4.50;;;1.08;;
58685;SDS011;44465;53.206;-6.106;2023-01-13T11:20:40;2.03;;;0.80;;
58685;SDS011;44465;53.206;-6.106;2023-01-13T11:23:16;2.78;;;0.60;;
58685;SDS011;44465;53.206;-6.106;2023-01-13T11:25:58;2.38;;;0.50;;
58685;SDS011;44465;53.206;-6.106;2023-01-13T11:28:49;1.63;;;1.00;;
58685;SDS011;44465;53.206;-6.106;2023-01-13T11:31:35;2.38;;;0.68;;
58685;SDS011;44465;53.206;-6.106;2023-01-13T11:36:55;1.80;;;0.80;;
58685;SDS011;44465;53.206;-6.106;2023-01-13T11:39:38;2.38;;;0.50;;
58685;SDS011;44465;53.206;-6.106;2023-01-13T11:42:23;0.93;;;0.60;;
58685;SDS011;44465;53.206;-6.106;2023-01-13T11:47:41;1.42;;;0.55;;
58685;SDS011;44465;53.206;-6.106;2023-01-13T11:50:16;1.63;;;0.80;;
58685;SDS011;44465;53.206;-6.106;2023-01-13T11:58:24;2.58;;;0.68;;
58685;SDS011;44465;53.206;-6.106;2023-01-13T12:03:49;3.22;;;0.82;;
58685;SDS011;44465;53.206;-6.106;2023-01-13T12:06:45;1.67;;;0.70;;
58685;SDS011;44465;53.206;-6.106;2023-01-13T12:20:01;2.63;;;1.00;;
58685;SDS011;44465;53.206;-6.106;2023-01-13T12:22:45;0.88;;;0.60;;
58685;SDS011;44465;53.206;-6.106;2023-01-13T12:25:29;2.63;;;0.73;;
58685;SDS011;44465;53.206;-6.106;2023-01-13T12:28:04;1.52;;;0.68;;
58685;SDS011;44465;53.206;-6.106;2023-01-13T12:30:47;2.88;;;0.80;;
58685;SDS011;44465;53.206;-6.106;2023-01-13T12:36:01;0.88;;;0.52;;
58685;SDS011;44465;53.206;-6.106;2023-01-13T12:38:36;2.47;;;0.90;;
58685;SDS011;44465;53.206;-6.106;2023-01-13T12:41:18;2.72;;;0.70;;
58685;SDS011;44465;53.206;-6.106;2023-01-13T12:43:48;2.20;;;0.70;;
58685;SDS011;44465;53.206;-6.106;2023-01-13T12:46:56;2.75;;;0.98;;
58685;SDS011;44465;53.206;-6.106;2023-01-13T12:49:31;2.83;;;0.85;;
58685;SDS011;44465;53.206;-6.106;2023-01-13T12:52:11;2.83;;;0.70;;
58685;SDS011;44465;53.206;-6.106;2023-01-13T12:57:20;1.85;;;0.57;;
58685;SDS011;44465;53.206;-6.106;2023-01-13T13:02:28;2.60;;;0.60;;
58685;SDS011;44465;53.206;-6.106;2023-01-13T13:07:43;1.88;;;1.10;;
58685;SDS011;44465;53.206;-6.106;2023-01-13T13:12:53;3.03;;;0.85;;
58685;SDS011;44465;53.206;-6.106;2023-01-13T13:15:39;3.22;;;0.65;;
58685;SDS011;44465;53.206;-6.106;2023-01-13T13:18:25;2.72;;;1.00;;
58685;SDS011;44465;53.206;-6.106;2023-01-13T13:23:38;4.18;;;0.85;;
58685;SDS011;44465;53.206;-6.106;2023-01-13T13:26:24;1.27;;;0.80;;
58685;SDS011;44465;53.206;-6.106;2023-01-13T13:34:51;2.05;;;0.70;;
58685;SDS011;44465;53.206;-6.106;2023-01-13T13:40:23;2.30;;;0.90;;
58685;SDS011;44465;53.206;-6.106;2023-01-13T13:43:10;1.63;;;0.70;;
58685;SDS011;44465;53.206;-6.106;2023-01-13T13:45:58;1.00;;;0.80;;
58685;SDS011;44465;53.206;-6.106;2023-01-13T13:48:51;2.85;;;0.82;;
58685;SDS011;44465;53.206;-6.106;2023-01-13T13:51:29;2.63;;;0.85;;
58685;SDS011;44465;53.206;-6.106;2023-01-13T13:54:03;2.88;;;0.75;;
58685;SDS011;44465;53.206;-6.106;2023-01-13T13:56:31;3.35;;;1.17;;
58685;SDS011;44465;53.206;-6.106;2023-01-13T13:59:07;2.63;;;1.00;;
58685;SDS011;44465;53.206;-6.106;2023-01-13T14:01:37;2.75;;;0.90;;
58685;SDS011;44465;53.206;-6.106;2023-01-13T14:04:14;1.52;;;1.00;;
58685;SDS011;44465;53.206;-6.106;2023-01-13T14:09:15;1.42;;;0.80;;
58685;SDS011;44465;53.206;-6.106;2023-01-13T14:11:42;1.75;;;1.13;;
58685;SDS011;44465;53.206;-6.106;2023-01-13T14:14:12;1.45;;;0.90;;
58685;SDS011;44465;53.206;-6.106;2023-01-13T14:16:39;0.90;;;0.77;;
58685;SDS011;44465;53.206;-6.106;2023-01-13T14:19:05;2.05;;;1.08;;
58685;SDS011;44465;53.206;-6.106;2023-01-13T14:21:46;3.00;;;1.10;;
58685;SDS011;44465;53.206;-6.106;2023-01-13T14:24:14;2.08;;;1.05;;
58685;SDS011;44465;53.206;-6.106;2023-01-13T14:26:45;1.58;;;1.00;;
58685;SDS011;44465;53.206;-6.106;2023-01-13T14:29:23;1.60;;;0.60;;
58685;SDS011;44465;53.206;-6.106;2023-01-13T14:31:50;2.55;;;0.85;;
58685;SDS011;44465;53.206;-6.106;2023-01-13T14:34:20;2.05;;;0.98;;
58685;SDS011;44465;53.206;-6.106;2023-01-13T14:36:46;2.80;;;0.95;;
58685;SDS011;44465;53.206;-6.106;2023-01-13T14:41:44;2.30;;;1.02;;
58685;SDS011;44465;53.206;-6.106;2023-01-13T14:47:19;2.10;;;0.77;;
58685;SDS011;44465;53.206;-6.106;2023-01-13T14:49:53;3.03;;;0.90;;
58685;SDS011;44465;53.206;-6.106;2023-01-13T14:52:30;2.17;;;0.75;;
58685;SDS011;44465;53.206;-6.106;2023-01-13T14:57:33;5.15;;;0.80;;
58685;SDS011;44465;53.206;-6.106;2023-01-13T15:02:38;5.13;;;1.27;;
58685;SDS011;44465;53.206;-6.106;2023-01-13T15:07:57;5.65;;;1.88;;
58685;SDS011;44465;53.206;-6.106;2023-01-13T15:10:27;7.70;;;1.92;;
58685;SDS011;44465;53.206;-6.106;2023-01-13T15:13:00;4.22;;;1.65;;
58685;SDS011;44465;53.206;-6.106;2023-01-13T15:15:29;6.88;;;1.45;;
58685;SDS011;44465;53.206;-6.106;2023-01-13T15:17:58;3.90;;;1.25;;
58685;SDS011;44465;53.206;-6.106;2023-01-13T15:20:26;2.08;;;0.90;;
58685;SDS011;44465;53.206;-6.106;2023-01-13T15:22:54;2.13;;;1.27;;
58685;SDS011;44465;53.206;-6.106;2023-01-13T15:25:22;3.25;;;0.98;;
58685;SDS011;44465;53.206;-6.106;2023-01-13T15:27:50;3.08;;;1.00;;
58685;SDS011;44465;53.206;-6.106;2023-01-13T15:30:18;4.53;;;1.38;;
58685;SDS011;44465;53.206;-6.106;2023-01-13T15:32:52;2.90;;;0.82;;
58685;SDS011;44465;53.206;-6.106;2023-01-13T15:35:22;2.72;;;1.23;;
58685;SDS011;44465;53.206;-6.106;2023-01-13T15:40:18;1.55;;;0.80;;
58685;SDS011;44465;53.206;-6.106;2023-01-13T15:42:48;4.63;;;1.52;;
58685;SDS011;44465;53.206;-6.106;2023-01-13T15:45:34;4.22;;;1.13;;
58685;SDS011;44465;53.206;-6.106;2023-01-13T15:48:22;2.90;;;1.02;;
58685;SDS011;44465;53.206;-6.106;2023-01-13T15:50:48;2.83;;;1.10;;
58685;SDS011;44465;53.206;-6.106;2023-01-13T15:53:15;1.27;;;0.70;;
58685;SDS011;44465;53.206;-6.106;2023-01-13T15:55:42;1.70;;;0.97;;
58685;SDS011;44465;53.206;-6.106;2023-01-13T15:58:28;5.28;;;1.23;;
58685;SDS011;44465;53.206;-6.106;2023-01-13T16:00:55;2.13;;;0.75;;
58685;SDS011;44465;53.206;-6.106;2023-01-13T16:03:21;1.75;;;0.90;;
58685;SDS011;44465;53.206;-6.106;2023-01-13T16:05:48;3.70;;;1.08;;
58685;SDS011;44465;53.206;-6.106;2023-01-13T16:08:16;1.13;;;0.90;;
58685;SDS011;44465;53.206;-6.106;2023-01-13T16:10:43;4.88;;;1.25;;
58685;SDS011;44465;53.206;-6.106;2023-01-13T16:13:12;2.60;;;1.27;;
58685;SDS011;44465;53.206;-6.106;2023-01-13T16:15:43;4.95;;;1.88;;
58685;SDS011;44465;53.206;-6.106;2023-01-13T16:18:16;4.40;;;1.08;;
58685;SDS011;44465;53.206;-6.106;2023-01-13T16:20:57;4.85;;;1.40;;
58685;SDS011;44465;53.206;-6.106;2023-01-13T16:23:23;2.40;;;1.23;;
58685;SDS011;44465;53.206;-6.106;2023-01-13T16:25:52;1.95;;;1.02;;
58685;SDS011;44465;53.206;-6.106;2023-01-13T16:28:21;4.50;;;1.27;;
58685;SDS011;44465;53.206;-6.106;2023-01-13T16:30:50;6.60;;;2.22;;
58685;SDS011;44465;53.206;-6.106;2023-01-13T16:33:18;9.10;;;5.70;;
58685;SDS011;44465;53.206;-6.106;2023-01-13T16:38:49;17.27;;;9.15;;
58685;SDS011;44465;53.206;-6.106;2023-01-13T16:43:41;23.30;;;7.88;;
58685;SDS011;44465;53.206;-6.106;2023-01-13T16:46:26;13.68;;;6.63;;
58685;SDS011;44465;53.206;-6.106;2023-01-13T16:49:00;10.48;;;6.35;;
58685;SDS011;44465;53.206;-6.106;2023-01-13T16:54:55;13.02;;;5.53;;
58685;SDS011;44465;53.206;-6.106;2023-01-13T16:57:21;11.95;;;5.60;;
58685;SDS011;44465;53.206;-6.106;2023-01-13T16:59:50;8.82;;;5.40;;
58685;SDS011;44465;53.206;-6.106;2023-01-13T17:02:16;11.90;;;5.05;;
58685;SDS011;44465;53.206;-6.106;2023-01-13T17:04:43;10.32;;;4.47;;
58685;SDS011;44465;53.206;-6.106;2023-01-13T17:07:14;9.23;;;4.60;;
58685;SDS011;44465;53.206;-6.106;2023-01-13T17:09:42;8.10;;;4.40;;
58685;SDS011;44465;53.206;-6.106;2023-01-13T17:12:08;8.43;;;4.70;;
58685;SDS011;44465;53.206;-6.106;2023-01-13T17:14:34;12.15;;;3.78;;
58685;SDS011;44465;53.206;-6.106;2023-01-13T17:16:59;8.07;;;4.00;;
58685;SDS011;44465;53.206;-6.106;2023-01-13T17:19:25;6.50;;;3.80;;
58685;SDS011;44465;53.206;-6.106;2023-01-13T17:21:53;9.38;;;3.45;;
58685;SDS011;44465;53.206;-6.106;2023-01-13T17:24:18;8.70;;;3.35;;
58685;SDS011;44465;53.206;-6.106;2023-01-13T17:26:46;7.15;;;3.83;;
58685;SDS011;44465;53.206;-6.106;2023-01-13T17:29:23;6.90;;;4.10;;
58685;SDS011;44465;53.206;-6.106;2023-01-13T17:31:51;8.80;;;3.85;;
58685;SDS011;44465;53.206;-6.106;2023-01-13T17:34:17;7.45;;;3.78;;
58685;SDS011;44465;53.206;-6.106;2023-01-13T17:36:44;8.10;;;4.27;;
58685;SDS011;44465;53.206;-6.106;2023-01-13T17:39:18;6.07;;;3.60;;
58685;SDS011;44465;53.206;-6.106;2023-01-13T17:41:46;7.93;;;3.67;;
58685;SDS011;44465;53.206;-6.106;2023-01-13T17:44:12;9.10;;;3.47;;
58685;SDS011;44465;53.206;-6.106;2023-01-13T17:46:41;6.13;;;3.33;;
58685;SDS011;44465;53.206;-6.106;2023-01-13T17:49:11;7.43;;;2.83;;
58685;SDS011;44465;53.206;-6.106;2023-01-13T17:51:44;4.63;;;2.55;;
58685;SDS011;44465;53.206;-6.106;2023-01-13T17:54:13;6.97;;;2.90;;
58685;SDS011;44465;53.206;-6.106;2023-01-13T17:56:40;5.82;;;2.75;;
58685;SDS011;44465;53.206;-6.106;2023-01-13T17:59:06;6.53;;;2.60;;
58685;SDS011;44465;53.206;-6.106;2023-01-13T18:01:33;5.03;;;2.42;;
58685;SDS011;44465;53.206;-6.106;2023-01-13T18:03:59;4.45;;;2.40;;
58685;SDS011;44465;53.206;-6.106;2023-01-13T18:06:27;5.40;;;2.80;;
58685;SDS011;44465;53.206;-6.106;2023-01-13T18:08:53;6.68;;;2.53;;
58685;SDS011;44465;53.206;-6.106;2023-01-13T18:11:20;4.20;;;2.45;;
58685;SDS011;44465;53.206;-6.106;2023-01-13T18:13:47;3.95;;;2.63;;
58685;SDS011;44465;53.206;-6.106;2023-01-13T18:18:42;4.78;;;2.00;;
58685;SDS011;44465;53.206;-6.106;2023-01-13T18:21:28;5.40;;;2.33;;
58685;SDS011;44465;53.206;-6.106;2023-01-13T18:24:15;8.23;;;2.70;;
58685;SDS011;44465;53.206;-6.106;2023-01-13T18:31:30;6.85;;;2.40;;
58685;SDS011;44465;53.206;-6.106;2023-01-13T18:33:56;5.53;;;2.67;;
58685;SDS011;44465;53.206;-6.106;2023-01-13T18:36:22;7.30;;;2.30;;
58685;SDS011;44465;53.206;-6.106;2023-01-13T18:38:48;6.97;;;2.60;;
58685;SDS011;44465;53.206;-6.106;2023-01-13T18:41:14;8.02;;;2.58;;
58685;SDS011;44465;53.206;-6.106;2023-01-13T18:43:59;7.82;;;2.20;;
58685;SDS011;44465;53.206;-6.106;2023-01-13T18:46:28;5.35;;;2.03;;
58685;SDS011;44465;53.206;-6.106;2023-01-13T18:48:53;8.45;;;2.47;;
58685;SDS011;44465;53.206;-6.106;2023-01-13T18:51:22;9.98;;;2.35;;
58685;SDS011;44465;53.206;-6.106;2023-01-13T18:53:49;10.00;;;2.38;;
58685;SDS011;44465;53.206;-6.106;2023-01-13T18:56:15;11.27;;;3.03;;
58685;SDS011;44465;53.206;-6.106;2023-01-13T18:58:41;9.70;;;2.33;;
58685;SDS011;44465;53.206;-6.106;2023-01-13T19:01:15;9.00;;;2.35;;
58685;SDS011;44465;53.206;-6.106;2023-01-13T19:03:40;5.57;;;2.30;;
58685;SDS011;44465;53.206;-6.106;2023-01-13T19:06:06;6.47;;;2.38;;
58685;SDS011;44465;53.206;-6.106;2023-01-13T19:08:38;7.70;;;2.00;;
58685;SDS011;44465;53.206;-6.106;2023-01-13T19:11:04;6.15;;;2.13;;
58685;SDS011;44465;53.206;-6.106;2023-01-13T19:13:31;11.15;;;2.70;;
58685;SDS011;44465;53.206;-6.106;2023-01-13T19:16:03;8.90;;;2.17;;
58685;SDS011;44465;53.206;-6.106;2023-01-13T19:18:29;6.38;;;2.13;;
58685;SDS011;44465;53.206;-6.106;2023-01-13T19:21:00;5.63;;;2.30;;
58685;SDS011;44465;53.206;-6.106;2023-01-13T19:23:28;5.10;;;1.98;;
58685;SDS011;44465;53.206;-6.106;2023-01-13T19:25:53;6.45;;;2.42;;
58685;SDS011;44465;53.206;-6.106;2023-01-13T19:28:22;6.30;;;2.10;;
58685;SDS011;44465;53.206;-6.106;2023-01-13T19:30:49;10.13;;;2.10;;
58685;SDS011;44465;53.206;-6.106;2023-01-13T19:35:41;4.68;;;2.20;;
58685;SDS011;44465;53.206;-6.106;2023-01-13T19:38:06;8.15;;;2.40;;
58685;SDS011;44465;53.206;-6.106;2023-01-13T19:40:38;9.25;;;3.03;;
58685;SDS011;44465;53.206;-6.106;2023-01-13T19:43:04;3.53;;;2.30;;
58685;SDS011;44465;53.206;-6.106;2023-01-13T19:45:49;10.02;;;2.42;;
58685;SDS011;44465;53.206;-6.106;2023-01-13T19:48:15;4.38;;;2.38;;
58685;SDS011;44465;53.206;-6.106;2023-01-13T19:50:41;4.25;;;2.05;;
58685;SDS011;44465;53.206;-6.106;2023-01-13T19:53:06;7.22;;;2.50;;
58685;SDS011;44465;53.206;-6.106;2023-01-13T19:55:42;5.93;;;2.53;;
58685;SDS011;44465;53.206;-6.106;2023-01-13T19:58:09;7.55;;;3.03;;
58685;SDS011;44465;53.206;-6.106;2023-01-13T20:00:35;5.63;;;2.20;;
58685;SDS011;44465;53.206;-6.106;2023-01-13T20:03:01;11.10;;;2.83;;
58685;SDS011;44465;53.206;-6.106;2023-01-13T20:05:28;9.25;;;2.42;;
58685;SDS011;44465;53.206;-6.106;2023-01-13T20:08:10;8.30;;;2.45;;
58685;SDS011;44465;53.206;-6.106;2023-01-13T20:10:36;10.52;;;2.65;;
58685;SDS011;44465;53.206;-6.106;2023-01-13T20:13:03;8.60;;;2.28;;
58685;SDS011;44465;53.206;-6.106;2023-01-13T20:15:32;9.48;;;2.83;;
58685;SDS011;44465;53.206;-6.106;2023-01-13T20:17:58;7.47;;;2.90;;
58685;SDS011;44465;53.206;-6.106;2023-01-13T20:20:26;11.75;;;4.00;;
58685;SDS011;44465;53.206;-6.106;2023-01-13T20:22:52;11.90;;;3.37;;
58685;SDS011;44465;53.206;-6.106;2023-01-13T20:25:18;13.93;;;2.80;;
58685;SDS011;44465;53.206;-6.106;2023-01-13T20:27:44;6.93;;;2.47;;
58685;SDS011;44465;53.206;-6.106;2023-01-13T20:30:11;13.15;;;3.45;;
58685;SDS011;44465;53.206;-6.106;2023-01-13T20:32:39;9.20;;;3.58;;
58685;SDS011;44465;53.206;-6.106;2023-01-13T20:35:06;14.68;;;3.30;;
58685;SDS011;44465;53.206;-6.106;2023-01-13T20:37:35;11.10;;;3.17;;
58685;SDS011;44465;53.206;-6.106;2023-01-13T20:40:03;12.05;;;3.88;;
58685;SDS011;44465;53.206;-6.106;2023-01-13T20:42:30;11.68;;;3.95;;
58685;SDS011;44465;53.206;-6.106;2023-01-13T20:45:04;15.38;;;4.40;;
58685;SDS011;44465;53.206;-6.106;2023-01-13T20:47:31;13.93;;;4.53;;
58685;SDS011;44465;53.206;-6.106;2023-01-13T20:49:57;13.15;;;4.75;;
58685;SDS011;44465;53.206;-6.106;2023-01-13T20:52:25;14.50;;;4.77;;
58685;SDS011;44465;53.206;-6.106;2023-01-13T20:54:50;18.05;;;5.25;;
58685;SDS011;44465;53.206;-6.106;2023-01-13T20:57:17;14.00;;;5.15;;
58685;SDS011;44465;53.206;-6.106;2023-01-13T20:59:43;11.73;;;4.45;;
58685;SDS011;44465;53.206;-6.106;2023-01-13T21:02:10;12.02;;;4.70;;
58685;SDS011;44465;53.206;-6.106;2023-01-13T21:04:38;13.80;;;4.60;;
58685;SDS011;44465;53.206;-6.106;2023-01-13T21:07:05;9.02;;;4.40;;
58685;SDS011;44465;53.206;-6.106;2023-01-13T21:09:32;10.93;;;4.47;;
58685;SDS011;44465;53.206;-6.106;2023-01-13T21:11:57;10.63;;;4.30;;
58685;SDS011;44465;53.206;-6.106;2023-01-13T21:14:41;10.68;;;4.30;;
58685;SDS011;44465;53.206;-6.106;2023-01-13T21:17:25;9.68;;;4.35;;
58685;SDS011;44465;53.206;-6.106;2023-01-13T21:20:10;9.15;;;4.63;;
58685;SDS011;44465;53.206;-6.106;2023-01-13T21:22:37;9.07;;;3.75;;
58685;SDS011;44465;53.206;-6.106;2023-01-13T21:25:03;11.90;;;4.43;;
58685;SDS011;44465;53.206;-6.106;2023-01-13T21:27:30;9.45;;;4.07;;
58685;SDS011;44465;53.206;-6.106;2023-01-13T21:29:58;8.95;;;3.83;;
58685;SDS011;44465;53.206;-6.106;2023-01-13T21:32:24;8.70;;;4.57;;
58685;SDS011;44465;53.206;-6.106;2023-01-13T21:34:51;11.07;;;3.55;;
58685;SDS011;44465;53.206;-6.106;2023-01-13T21:37:16;7.95;;;3.35;;
58685;SDS011;44465;53.206;-6.106;2023-01-13T21:39:42;8.43;;;3.47;;
58685;SDS011;44465;53.206;-6.106;2023-01-13T21:42:12;8.18;;;3.60;;
58685;SDS011;44465;53.206;-6.106;2023-01-13T21:44:57;8.80;;;3.97;;
58685;SDS011;44465;53.206;-6.106;2023-01-13T21:47:41;5.80;;;3.15;;
58685;SDS011;44465;53.206;-6.106;2023-01-13T21:50:21;8.57;;;4.22;;
58685;SDS011;44465;53.206;-6.106;2023-01-13T21:52:49;8.35;;;3.78;;
58685;SDS011;44465;53.206;-6.106;2023-01-13T21:55:17;7.85;;;3.72;;
58685;SDS011;44465;53.206;-6.106;2023-01-13T21:58:08;9.70;;;3.80;;
58685;SDS011;44465;53.206;-6.106;2023-01-13T22:00:36;7.68;;;2.90;;
58685;SDS011;44465;53.206;-6.106;2023-01-13T22:03:03;6.45;;;3.20;;
58685;SDS011;44465;53.206;-6.106;2023-01-13T22:05:30;5.82;;;3.35;;
58685;SDS011;44465;53.206;-6.106;2023-01-13T22:07:56;8.88;;;3.00;;
58685;SDS011;44465;53.206;-6.106;2023-01-13T22:10:23;5.40;;;2.88;;
58685;SDS011;44465;53.206;-6.106;2023-01-13T22:12:51;8.15;;;2.88;;
58685;SDS011;44465;53.206;-6.106;2023-01-13T22:15:18;7.05;;;3.13;;
58685;SDS011;44465;53.206;-6.106;2023-01-13T22:17:44;5.63;;;2.60;;
58685;SDS011;44465;53.206;-6.106;2023-01-13T22:22:38;5.40;;;2.72;;
58685;SDS011;44465;53.206;-6.106;2023-01-13T22:25:05;4.88;;;2.97;;
58685;SDS011;44465;53.206;-6.106;2023-01-13T22:27:33;3.15;;;2.25;;
58685;SDS011;44465;53.206;-6.106;2023-01-13T22:30:09;4.97;;;2.78;;
58685;SDS011;44465;53.206;-6.106;2023-01-13T22:32:38;4.80;;;2.50;;
58685;SDS011;44465;53.206;-6.106;2023-01-13T22:35:05;5.60;;;2.90;;
58685;SDS011;44465;53.206;-6.106;2023-01-13T22:37:34;7.78;;;3.17;;
58685;SDS011;44465;53.206;-6.106;2023-01-13T22:40:03;5.38;;;3.05;;
58685;SDS011;44465;53.206;-6.106;2023-01-13T22:42:35;4.90;;;2.42;;
58685;SDS011;44465;53.206;-6.106;2023-01-13T22:45:04;2.10;;;1.90;;
58685;SDS011;44465;53.206;-6.106;2023-01-13T22:49:57;4.13;;;2.28;;
58685;SDS011;44465;53.206;-6.106;2023-01-13T22:52:23;5.50;;;2.45;;
58685;SDS011;44465;53.206;-6.106;2023-01-13T22:54:51;7.57;;;2.38;;
58685;SDS011;44465;53.206;-6.106;2023-01-13T22:57:17;8.23;;;2.33;;
58685;SDS011;44465;53.206;-6.106;2023-01-13T22:59:42;4.97;;;2.30;;
58685;SDS011;44465;53.206;-6.106;2023-01-13T23:02:08;4.03;;;2.45;;
58685;SDS011;44465;53.206;-6.106;2023-01-13T23:04:33;5.18;;;2.28;;
58685;SDS011;44465;53.206;-6.106;2023-01-13T23:06:59;5.35;;;2.08;;
58685;SDS011;44465;53.206;-6.106;2023-01-13T23:09:24;5.07;;;2.00;;
58685;SDS011;44465;53.206;-6.106;2023-01-13T23:11:54;3.53;;;2.45;;
58685;SDS011;44465;53.206;-6.106;2023-01-13T23:14:20;5.57;;;2.33;;
58685;SDS011;44465;53.206;-6.106;2023-01-13T23:16:50;5.43;;;2.35;;
58685;SDS011;44465;53.206;-6.106;2023-01-13T23:19:16;5.07;;;3.03;;